Time;durP1;ratioP1;P1;durP2;ratioP2;P2;SDS_P1;SDS_P2;PMS_P1;PMS_P2;Temp;Humidity;BMP_temperature;BMP_pressure;BME280_temperature;BME280_humidity;BME280_pressure;Samples;Min_cycle;Max_cycle;Signal;HPM_P1;HPM_P2
2021/04/01 00:01:04;;;;;;;68.83;40.33;;;;;;;9.43;58.40;100319.13;1693446;84;21091;-79
2021/04/01 00:03:30;;;;;;;69.12;37.85;;;;;;;9.38;58.61;100318.14;1665477;84;21127;-79
2021/04/01 00:05:56;;;;;;;63.25;37.63;;;;;;;9.36;58.63;100321.34;1656471;87;21175;-79
2021/04/01 00:08:22;;;;;;;66.65;37.25;;;;;;;9.31;58.53;100310.73;1668111;83;21649;-79
2021/04/01 00:10:48;;;;;;;65.30;34.73;;;;;;;9.28;58.78;100308.30;1695419;84;21154;-79
2021/04/01 00:13:14;;;;;;;60.85;35.10;;;;;;;9.24;58.92;100308.98;1695709;84;21672;-79
2021/04/01 00:15:42;;;;;;;59.50;34.13;;;;;;;9.22;59.10;100303.00;1696177;84;21135;-79
2021/04/01 00:18:15;;;;;;;64.70;35.08;;;;;;;9.21;59.21;100306.56;1668138;86;21577;-79
2021/04/01 00:20:41;;;;;;;57.13;34.00;;;;;;;9.19;59.19;100301.05;1667302;86;21146;-79
2021/04/01 00:23:07;;;;;;;60.08;35.10;;;;;;;9.18;59.24;100293.63;1668187;86;21328;-79
2021/04/01 00:25:33;;;;;;;59.95;35.25;;;;;;;9.19;59.17;100293.16;1678144;84;21498;-79
2021/04/01 00:27:59;;;;;;;55.95;33.53;;;;;;;9.19;59.15;100291.36;1696143;84;21111;-79
2021/04/01 00:30:25;;;;;;;57.73;35.05;;;;;;;9.18;59.32;100289.69;1696314;84;21695;-79
2021/04/01 00:32:51;;;;;;;55.90;33.80;;;;;;;9.15;59.31;100281.52;1696160;84;21164;-79
2021/04/01 00:35:17;;;;;;;67.20;34.85;;;;;;;9.14;59.23;100286.86;1696306;84;21127;-79
2021/04/01 00:37:43;;;;;;;56.25;34.10;;;;;;;9.10;59.41;100279.65;1693340;84;21113;-79
2021/04/01 00:40:11;;;;;;;60.43;36.08;;;;;;;9.06;59.29;100279.97;1696218;84;21105;-79
2021/04/01 00:42:38;;;;;;;56.18;33.48;;;;;;;9.02;59.37;100279.81;1696075;84;21179;-79
2021/04/01 00:45:09;;;;;;;64.35;34.58;;;;;;;8.98;59.34;100284.88;1696290;84;21141;-79
2021/04/01 00:47:40;;;;;;;65.00;37.33;;;;;;;8.92;59.90;100280.89;1695102;84;21166;-79
2021/04/01 00:50:11;;;;;;;56.83;35.55;;;;;;;8.84;60.14;100281.37;1679694;84;21580;-79
2021/04/01 00:52:38;;;;;;;65.20;35.65;;;;;;;8.76;60.85;100273.64;1656347;87;21604;-80
2021/04/01 00:55:08;;;;;;;62.67;35.80;;;;;;;8.67;60.63;100272.45;1656633;87;21374;-79
2021/04/01 00:57:36;;;;;;;59.53;36.90;;;;;;;8.62;60.46;100274.08;1672629;84;21180;-79
2021/04/01 01:00:06;;;;;;;58.98;35.10;;;;;;;8.59;60.55;100274.75;1698898;84;21457;-79
2021/04/01 01:02:32;;;;;;;57.30;32.95;;;;;;;8.55;60.76;100269.29;1698645;84;21107;-79
2021/04/01 01:04:59;;;;;;;54.45;32.78;;;;;;;8.53;60.91;100272.03;1704307;83;21228;-79
2021/04/01 01:07:25;;;;;;;53.00;33.95;;;;;;;8.51;61.03;100269.12;1696177;84;21159;-79
2021/04/01 01:09:51;;;;;;;54.70;33.45;;;;;;;8.50;61.52;100268.77;1708982;83;21103;-79
2021/04/01 01:12:17;;;;;;;63.30;35.45;;;;;;;8.48;61.10;100265.38;1701621;83;21135;-79
2021/04/01 01:14:43;;;;;;;65.25;37.23;;;;;;;8.45;61.34;100264.63;1696391;84;21534;-79
2021/04/01 01:17:09;;;;;;;59.30;33.45;;;;;;;8.40;61.25;100258.83;1696185;84;21122;-79
2021/04/01 01:19:38;;;;;;;64.03;35.63;;;;;;;8.36;61.34;100257.32;1696370;84;21149;-79
2021/04/01 01:22:06;;;;;;;61.02;33.20;;;;;;;8.32;61.36;100251.86;1709462;83;21103;-79
2021/04/01 01:24:35;;;;;;;65.57;35.55;;;;;;;8.25;61.73;100249.27;1725299;83;21511;-79
2021/04/01 01:27:04;;;;;;;64.87;34.27;;;;;;;8.21;61.65;100250.41;1714853;83;21189;-79
2021/04/01 01:29:32;;;;;;;66.05;36.70;;;;;;;8.18;62.03;100246.66;1696186;84;21596;-79
2021/04/01 01:31:58;;;;;;;69.05;35.13;;;;;;;8.15;62.04;100243.75;1696220;84;21175;-79
2021/04/01 01:34:24;;;;;;;67.22;36.58;;;;;;;8.11;61.92;100238.80;1696406;84;21171;-79
2021/04/01 01:36:51;;;;;;;66.60;36.00;;;;;;;8.06;62.00;100237.79;1696062;84;21166;-79
2021/04/01 01:39:17;;;;;;;69.80;37.25;;;;;;;8.03;61.97;100235.35;1696341;84;21179;-79
2021/04/01 01:41:43;;;;;;;57.85;36.08;;;;;;;7.99;62.09;100232.08;1696163;84;21084;-79
2021/04/01 01:44:09;;;;;;;54.45;33.78;;;;;;;7.93;62.57;100221.95;1696402;84;21312;-79
2021/04/01 01:46:35;;;;;;;62.23;34.73;;;;;;;7.92;62.93;100226.81;1696203;84;21156;-79
2021/04/01 01:49:01;;;;;;;58.13;34.18;;;;;;;7.88;62.94;100223.17;1696295;84;21626;-79
2021/04/01 01:51:29;;;;;;;53.00;30.55;;;;;;;7.86;62.98;100218.00;1696365;84;21355;-79
2021/04/01 01:53:56;;;;;;;60.15;32.17;;;;;;;7.84;63.20;100213.33;1696210;84;21621;-79
2021/04/01 01:56:24;;;;;;;61.85;36.38;;;;;;;7.85;63.11;100218.95;1696309;84;21127;-79
2021/04/01 01:58:56;;;;;;;62.83;34.35;;;;;;;7.87;63.89;100215.77;1712292;83;21152;-79
2021/04/01 02:01:23;;;;;;;59.63;35.65;;;;;;;7.90;63.24;100205.06;1725412;83;21064;-79
2021/04/01 02:03:49;;;;;;;60.12;35.90;;;;;;;7.89;63.23;100209.92;1725202;83;21123;-79
2021/04/01 02:06:18;;;;;;;63.58;37.20;;;;;;;7.89;63.09;100203.36;1725266;83;21115;-79
2021/04/01 02:08:45;;;;;;;72.03;41.33;;;;;;;7.87;63.01;100205.26;1713502;83;21206;-79
2021/04/01 02:11:11;;;;;;;62.08;35.85;;;;;;;7.85;63.50;100194.47;1696285;84;21158;-79
2021/04/01 02:13:37;;;;;;;63.65;34.90;;;;;;;7.83;63.35;100195.02;1696204;84;21174;-79
2021/04/01 02:16:03;;;;;;;66.70;37.55;;;;;;;7.77;63.22;100191.02;1696369;84;21154;-79
2021/04/01 02:18:30;;;;;;;65.72;39.20;;;;;;;7.73;63.22;100192.13;1696210;84;21159;-79
2021/04/01 02:20:59;;;;;;;65.05;37.55;;;;;;;7.70;63.17;100191.88;1696264;84;21195;-79
2021/04/01 02:23:34;;;;;;;54.65;34.67;;;;;;;7.67;63.34;100194.69;1696325;84;21119;-79
2021/04/01 02:26:02;;;;;;;57.20;31.87;;;;;;;7.65;63.49;100197.88;1696294;84;21145;-79
2021/04/01 02:28:31;;;;;;;52.73;32.78;;;;;;;7.62;63.50;100196.75;1696237;84;21103;-78
2021/04/01 02:31:06;;;;;;;60.98;32.05;;;;;;;7.61;63.48;100195.07;1696296;84;21084;-78
2021/04/01 02:33:36;;;;;;;60.73;32.95;;;;;;;7.60;63.63;100189.90;1696152;84;21541;-78
2021/04/01 02:36:05;;;;;;;54.93;32.00;;;;;;;7.59;63.95;100195.63;1696129;84;21591;-78
2021/04/01 02:38:31;;;;;;;53.98;33.05;;;;;;;7.60;63.82;100193.39;1696289;84;21129;-78
2021/04/01 02:40:58;;;;;;;65.67;35.50;;;;;;;7.59;63.57;100189.06;1696237;84;21099;-78
2021/04/01 02:43:43;;;;;;;51.88;31.33;;;;;;;7.58;63.98;100198.36;1696205;84;21119;-81
2021/04/01 02:45:56;;;;;;;52.90;32.50;;;;;;;7.53;64.06;100192.06;1688996;84;21175;-78
2021/04/01 02:48:22;;;;;;;53.10;31.87;;;;;;;7.49;64.15;100186.63;1696238;84;21111;-79
2021/04/01 02:50:48;;;;;;;59.27;32.42;;;;;;;7.46;63.90;100182.88;1696386;84;21164;-79
2021/04/01 02:53:15;;;;;;;57.40;33.42;;;;;;;7.43;63.90;100192.26;1696171;84;21716;-78
2021/04/01 02:55:41;;;;;;;58.48;33.65;;;;;;;7.39;63.82;100188.98;1696254;84;21618;-79
2021/04/01 02:58:07;;;;;;;55.23;30.57;;;;;;;7.34;63.64;100183.19;1703611;83;21099;-79
2021/04/01 03:00:35;;;;;;;55.28;30.88;;;;;;;7.31;63.94;100179.44;1725292;83;21239;-78
2021/04/01 03:03:06;;;;;;;58.28;33.25;;;;;;;7.26;63.90;100178.86;1725211;83;21305;-81
2021/04/01 03:05:28;;;;;;;54.95;31.93;;;;;;;7.22;64.03;100176.05;1724571;83;21163;-79
2021/04/01 03:07:55;;;;;;;55.17;30.90;;;;;;;7.19;64.33;100181.02;1724165;83;21091;-79
2021/04/01 03:10:21;;;;;;;55.33;31.85;;;;;;;7.15;64.48;100175.59;1696431;83;21120;-79
2021/04/01 03:12:47;;;;;;;51.02;29.90;;;;;;;7.11;64.53;100164.03;1696299;84;21558;-78
2021/04/01 03:15:13;;;;;;;52.75;31.68;;;;;;;7.10;64.70;100163.67;1696363;84;21265;-79
2021/04/01 03:17:41;;;;;;;55.95;32.98;;;;;;;7.08;64.78;100169.03;1696416;84;21137;-79
2021/04/01 03:20:09;;;;;;;56.83;33.73;;;;;;;7.07;64.86;100166.48;1696278;84;21553;-79
2021/04/01 03:22:37;;;;;;;53.38;32.75;;;;;;;7.08;65.37;100164.25;1672451;84;21178;-79
2021/04/01 03:25:06;;;;;;;54.55;33.55;;;;;;;7.05;65.08;100159.55;1696255;84;21088;-78
2021/04/01 03:27:32;;;;;;;56.55;33.83;;;;;;;7.06;65.07;100152.52;1696114;84;21145;-78
2021/04/01 03:30:09;;;;;;;60.08;34.35;;;;;;;7.04;65.49;100155.25;1696318;84;21618;-79
2021/04/01 03:32:36;;;;;;;66.72;36.70;;;;;;;7.03;65.06;100159.27;1695265;84;21189;-78
2021/04/01 03:35:05;;;;;;;59.00;33.63;;;;;;;7.00;65.55;100156.83;1667985;85;21654;-78
2021/04/01 03:37:32;;;;;;;62.45;36.23;;;;;;;6.98;65.19;100158.72;1668119;86;21157;-78
2021/04/01 03:39:58;;;;;;;66.92;38.10;;;;;;;6.94;65.26;100158.06;1645249;86;21139;-78
2021/04/01 03:42:25;;;;;;;62.17;37.13;;;;;;;6.94;65.69;100151.50;1668094;86;21589;-78
2021/04/01 03:44:51;;;;;;;57.53;34.78;;;;;;;6.94;66.52;100144.94;1668340;86;21207;-78
2021/04/01 03:47:18;;;;;;;56.90;33.83;;;;;;;6.95;66.80;100145.78;1668118;86;21162;-78
2021/04/01 03:49:45;;;;;;;57.40;33.65;;;;;;;6.96;66.34;100146.98;1668332;86;21356;-78
2021/04/01 03:52:11;;;;;;;60.03;35.83;;;;;;;6.97;67.14;100145.20;1668103;86;21146;-78
2021/04/01 03:54:37;;;;;;;58.60;34.58;;;;;;;7.00;67.06;100151.10;1680680;84;21084;-78
2021/04/01 03:57:04;;;;;;;71.22;38.83;;;;;;;7.01;67.17;100151.50;1696060;84;21174;-78
2021/04/01 03:59:39;;;;;;;65.35;36.23;;;;;;;7.01;66.91;100143.63;1720398;83;21526;-78
2021/04/01 04:04:54;;;;;;;63.03;38.17;;;;;;;6.97;66.63;100139.48;1693082;84;21154;-78
2021/04/01 04:12:44;;;;;;;65.32;37.00;;;;;;;6.81;66.20;100137.41;1695985;83;21155;-78
2021/04/01 04:15:06;;;;;;;61.25;35.98;;;;;;;6.74;66.06;100129.06;1691367;84;21139;-78
2021/04/01 04:17:29;;;;;;;61.75;37.50;;;;;;;6.70;66.28;100130.66;1695111;83;21599;-79
2021/04/01 04:19:56;;;;;;;62.83;33.65;;;;;;;6.65;66.83;100138.81;1696394;84;21178;-78
2021/04/01 04:22:22;;;;;;;61.63;33.58;;;;;;;6.58;66.62;100130.47;1696080;84;21538;-78
2021/04/01 04:24:48;;;;;;;64.85;33.80;;;;;;;6.55;67.07;100130.64;1696297;84;21569;-78
2021/04/01 04:28:08;;;;;;;61.35;33.78;;;;;;;6.51;67.18;100131.73;1696093;84;21091;-78
2021/04/01 04:29:42;;;;;;;52.30;29.85;;;;;;;6.48;67.29;100130.63;1668029;84;21196;-78
2021/04/01 04:32:08;;;;;;;61.55;32.67;;;;;;;6.46;67.03;100129.87;1695994;84;21614;-78
2021/04/01 04:34:34;;;;;;;63.98;31.10;;;;;;;6.44;67.17;100131.72;1695221;84;21180;-79
2021/04/01 04:37:00;;;;;;;57.35;31.15;;;;;;;6.43;66.80;100128.73;1694614;84;21139;-78
2021/04/01 04:39:26;;;;;;;56.08;31.55;;;;;;;6.41;66.58;100127.97;1694896;85;21747;-79
2021/04/01 04:41:52;;;;;;;63.28;31.50;;;;;;;6.38;67.07;100124.22;1694714;85;21107;-79
2021/04/01 04:44:18;;;;;;;63.23;30.48;;;;;;;6.32;67.25;100125.44;1694967;84;21123;-79
2021/04/01 04:46:44;;;;;;;56.95;32.15;;;;;;;6.27;67.32;100127.47;1694660;85;21270;-78
2021/04/01 04:49:10;;;;;;;58.02;31.95;;;;;;;6.23;67.48;100125.97;1694784;85;21197;-78
2021/04/01 04:51:36;;;;;;;54.15;31.50;;;;;;;6.14;67.29;100119.09;1694951;83;21635;-78
2021/04/01 04:54:03;;;;;;;56.92;28.87;;;;;;;6.14;67.29;100119.09;1690089;84;21119;-78
2021/04/01 04:56:31;;;;;;;57.80;29.82;;;;;;;6.09;67.40;100116.28;1695768;83;21096;-80
2021/04/01 04:59:09;;;;;;;63.90;31.87;;;;;;;6.05;68.29;100113.44;1694305;83;21119;-78
2021/04/01 05:04:38;;;;;;;58.65;33.20;;;;;;;6.02;68.40;100107.09;1667954;86;21585;-78
2021/04/01 05:07:01;;;;;;;60.73;31.50;;;;;;;6.04;68.17;100109.61;1668090;85;21202;-78
2021/04/01 05:09:27;;;;;;;71.12;35.33;;;;;;;6.07;68.00;100114.20;1667942;86;21154;-78
2021/04/01 05:11:55;;;;;;;63.00;34.35;;;;;;;6.10;68.65;100111.41;1667657;86;21184;-78
2021/04/01 05:14:21;;;;;;;63.63;36.23;;;;;;;6.18;69.17;100107.50;1667123;86;21544;-78
2021/04/01 05:16:47;;;;;;;58.50;35.15;;;;;;;6.23;68.56;100106.78;1667731;86;21182;-78
2021/04/01 05:19:14;;;;;;;60.80;32.15;;;;;;;6.27;68.76;100103.05;1667994;86;21111;-78
2021/04/01 05:21:53;;;;;;;57.27;30.48;;;;;;;6.31;69.08;100104.08;1667976;86;21159;-78
2021/04/01 05:24:17;;;;;;;52.90;29.70;;;;;;;6.36;69.56;100101.67;1667915;86;21269;-78
2021/04/01 05:29:18;;;;;;;60.23;29.50;;;;;;;6.44;69.56;100096.81;1668074;86;21132;-78
2021/04/01 05:31:42;;;;;;;56.42;28.75;;;;;;;6.47;70.10;100096.16;1667753;85;21183;-78
2021/04/01 05:34:09;;;;;;;45.98;28.35;;;;;;;6.51;70.71;100100.28;1667912;86;21190;-78
2021/04/01 05:36:39;;;;;;;49.00;28.65;;;;;;;6.58;70.72;100102.06;1667761;86;21321;-78
2021/04/01 05:39:05;;;;;;;42.03;26.00;;;;;;;6.64;70.28;100100.87;1667634;86;21127;-78
2021/04/01 05:41:31;;;;;;;50.45;27.20;;;;;;;6.72;70.62;100102.11;1667568;86;21340;-78
2021/04/01 06:04:04;;;;;;;52.58;26.60;;;;;;;7.34;71.77;100091.76;1695529;84;21159;-80
2021/04/01 06:06:45;;;;;;;48.28;27.30;;;;;;;7.39;71.84;100091.85;1695692;84;21157;-80
2021/04/01 06:09:24;;;;;;;50.05;27.02;;;;;;;7.47;72.24;100097.48;1693011;84;21155;-78
2021/04/01 06:11:53;;;;;;;47.25;27.00;;;;;;;7.59;72.57;100095.84;1668224;84;21145;-79
2021/04/01 06:14:35;;;;;;;50.45;26.50;;;;;;;7.73;72.44;100091.00;1656071;87;21183;-79
2021/04/01 06:17:10;;;;;;;47.58;26.23;;;;;;;7.86;72.59;100082.70;1660570;84;21166;-80
2021/04/01 06:19:39;;;;;;;46.23;27.13;;;;;;;8.02;72.44;100078.60;1695767;84;21135;-78
2021/04/01 06:22:09;;;;;;;53.23;28.55;;;;;;;8.18;72.37;100081.06;1695772;84;21166;-79
2021/04/01 06:24:38;;;;;;;48.98;28.50;;;;;;;8.30;72.14;100078.10;1695510;84;21181;-79
2021/04/01 06:30:09;;;;;;;46.75;27.75;;;;;;;8.53;71.87;100080.53;1656248;87;21179;-79
2021/04/01 06:32:24;;;;;;;56.08;28.40;;;;;;;8.64;71.70;100081.47;1652310;87;21202;-79
2021/04/01 06:34:50;;;;;;;52.85;28.80;;;;;;;8.73;71.66;100073.42;1692757;84;21273;-79
2021/04/01 06:40:05;;;;;;;48.60;25.62;;;;;;;8.94;71.52;100073.72;1634689;87;21155;-79
2021/04/01 06:42:51;;;;;;;42.17;24.45;;;;;;;9.05;71.26;100073.83;1656066;87;21594;-79
2021/04/01 06:45:24;;;;;;;39.90;24.80;;;;;;;9.20;70.48;100075.84;1656300;84;21175;-78
2021/04/01 06:47:55;;;;;;;43.95;25.30;;;;;;;9.36;70.58;100072.48;1655954;87;21183;-78
2021/04/01 06:50:26;;;;;;;44.33;24.77;;;;;;;9.53;69.89;100074.37;1679193;83;21627;-78
2021/04/01 06:53:06;;;;;;;46.05;25.12;;;;;;;9.65;69.92;100072.18;1683876;84;21307;-78
2021/04/01 06:58:05;;;;;;;47.05;26.45;;;;;;;9.91;69.20;100074.70;1695794;84;21103;-78
2021/04/01 07:03:22;;;;;;;42.55;24.92;;;;;;;10.12;69.11;100072.27;1679165;83;21506;-79
2021/04/01 07:05:51;;;;;;;39.20;25.48;;;;;;;10.22;68.87;100063.54;1692857;83;21328;-79
2021/04/01 07:08:24;;;;;;;43.05;25.62;;;;;;;10.30;69.12;100060.38;1655940;87;21539;-79
2021/04/01 07:10:53;;;;;;;54.15;31.35;;;;;;;10.38;68.96;100063.26;1654437;87;21320;-79
2021/04/01 07:13:27;;;;;;;57.78;29.92;;;;;;;10.45;69.30;100063.63;1693797;84;21158;-79
2021/04/01 07:16:00;;;;;;;47.95;28.55;;;;;;;10.52;69.09;100055.13;1691416;84;21563;-79
2021/04/01 07:18:30;;;;;;;54.27;26.17;;;;;;;10.60;68.70;100065.59;1683689;84;21287;-79
2021/04/01 07:21:25;;;;;;;42.80;25.55;;;;;;;10.64;68.62;100059.95;1685437;84;21714;-79
2021/04/01 07:48:20;;;;;;;40.70;24.23;;;;;;;11.76;65.11;100038.33;1724652;83;21158;-79
2021/04/01 07:50:46;;;;;;;44.08;26.12;;;;;;;11.91;64.95;100043.69;1701627;83;21151;-79
2021/04/01 07:53:24;;;;;;;42.45;25.90;;;;;;;12.01;64.71;100047.28;1695629;84;21159;-79
2021/04/01 07:58:54;;;;;;;45.40;23.45;;;;;;;12.23;64.94;100044.15;1641213;84;21170;-79
2021/04/01 08:01:15;;;;;;;39.83;23.57;;;;;;;12.34;64.26;100038.78;1691536;84;21301;-79
2021/04/01 08:06:38;;;;;;;45.75;22.17;;;;;;;12.72;63.17;100049.25;1675285;83;21764;-79
2021/04/01 08:09:08;;;;;;;37.10;23.57;;;;;;;12.92;62.95;100041.73;1618709;87;21137;-79
2021/04/01 08:11:43;;;;;;;41.00;22.98;;;;;;;13.12;63.09;100043.48;1608332;87;21638;-79
2021/04/01 08:14:15;;;;;;;37.78;22.62;;;;;;;13.29;62.53;100036.75;1610682;87;21591;-79
2021/04/01 08:16:45;;;;;;;34.73;20.80;;;;;;;13.50;62.60;100040.63;1617328;87;21156;-79
2021/04/01 08:19:13;;;;;;;33.65;21.85;;;;;;;13.65;62.03;100037.56;1633610;87;21173;-79
2021/04/01 08:21:42;;;;;;;34.63;21.10;;;;;;;13.78;61.32;100034.98;1637542;87;21182;-80
2021/04/01 08:24:18;;;;;;;41.95;21.45;;;;;;;13.92;61.36;100032.42;1640070;87;21194;-80
2021/04/01 08:32:01;;;;;;;32.53;17.12;;;;;;;14.32;58.91;100027.42;1609549;87;21180;-79
2021/04/01 08:36:54;;;;;;;28.62;15.50;;;;;;;14.57;58.90;100025.98;1629654;87;21195;-79
2021/04/01 08:39:23;;;;;;;31.70;15.90;;;;;;;14.70;58.53;100019.02;1636201;87;21134;-79
2021/04/01 08:42:31;;;;;;;29.02;15.72;;;;;;;14.81;57.25;100021.52;1630000;87;21739;-80
2021/04/01 08:45:32;;;;;;;28.12;15.53;;;;;;;14.93;57.27;100022.98;1635054;87;21097;-80
2021/04/01 08:48:23;;;;;;;31.23;15.08;;;;;;;15.09;57.43;100018.86;1637116;87;21914;-80
2021/04/01 08:51:21;;;;;;;27.07;14.43;;;;;;;15.26;56.93;100023.37;1636882;86;21200;-80
2021/04/01 08:54:25;;;;;;;27.45;14.13;;;;;;;15.41;56.74;100023.22;1645169;87;21224;-81
2021/04/01 08:57:24;;;;;;;25.45;14.58;;;;;;;15.58;55.11;100014.91;1587406;89;21179;-81
2021/04/01 09:00:13;;;;;;;28.42;15.43;;;;;;;15.69;54.88;100008.56;1634577;87;21684;-79
2021/04/01 09:02:50;;;;;;;22.60;14.58;;;;;;;15.76;55.07;100006.98;1626112;87;21631;-79
2021/04/01 09:05:20;;;;;;;26.95;14.53;;;;;;;15.80;54.46;100005.69;1637210;86;21192;-79
2021/04/01 09:07:51;;;;;;;25.85;14.55;;;;;;;15.84;54.68;99995.08;1630732;87;21170;-79
2021/04/01 09:10:23;;;;;;;24.57;14.07;;;;;;;15.87;54.25;99996.10;1631716;87;21326;-79
2021/04/01 09:13:00;;;;;;;;;;;;;;;15.90;54.12;99997.62;1635306;87;21185;-79
2021/04/01 09:17:52;;;;;;;28.70;13.65;;;;;;;15.97;54.40;99992.52;1630547;87;21179;-79
2021/04/01 09:20:24;;;;;;;25.75;14.90;;;;;;;16.02;54.17;99989.72;1633180;86;21583;-80
2021/04/01 09:22:56;;;;;;;23.87;14.75;;;;;;;16.05;54.02;99985.92;1633290;87;21158;-80
2021/04/01 09:25:37;;;;;;;25.97;14.68;;;;;;;16.09;53.78;99984.61;1629592;86;21142;-80
2021/04/01 09:28:09;;;;;;;23.57;14.90;;;;;;;16.12;53.60;99985.63;1617708;87;21171;-80
2021/04/01 09:30:36;;;;;;;24.60;13.83;;;;;;;16.16;53.75;99984.36;1638523;86;21170;-80
2021/04/01 09:33:10;;;;;;;26.97;14.95;;;;;;;16.21;53.94;99982.55;1637866;86;21174;-80
2021/04/01 09:35:38;;;;;;;24.43;14.15;;;;;;;16.22;53.70;99985.04;1640032;87;21266;-80
2021/04/01 09:38:10;;;;;;;22.52;13.13;;;;;;;16.28;52.74;99981.76;1626671;87;21256;-80
2021/04/01 09:40:45;;;;;;;27.13;14.73;;;;;;;16.31;53.54;99981.95;1630547;86;21163;-80
2021/04/01 09:43:18;;;;;;;23.62;14.15;;;;;;;16.35;52.87;99978.83;1632897;86;21095;-81
2021/04/01 09:45:51;;;;;;;33.30;15.80;;;;;;;16.38;52.99;99979.82;1634396;87;21551;-81
2021/04/01 09:48:25;;;;;;;40.78;17.67;;;;;;;16.43;52.98;99975.38;1637634;87;21101;-80
2021/04/01 09:50:56;;;;;;;51.63;22.22;;;;;;;16.48;51.64;99970.39;1638780;87;21719;-80
2021/04/01 09:53:23;;;;;;;28.23;14.90;;;;;;;16.54;52.21;99963.61;1619946;87;21525;-81
2021/04/01 09:55:53;;;;;;;43.33;18.07;;;;;;;16.60;52.53;99961.14;1634010;87;21812;-81
2021/04/01 09:58:34;;;;;;;61.02;21.05;;;;;;;16.65;52.30;99964.18;1616042;86;21585;-81
2021/04/01 10:04:04;;;;;;;25.25;13.32;;;;;;;16.76;52.36;99960.92;1645113;86;21157;-80
2021/04/01 10:06:43;;;;;;;24.85;14.75;;;;;;;16.83;51.39;99964.11;1634221;87;21162;-80
2021/04/01 10:09:20;;;;;;;22.93;13.15;;;;;;;16.95;51.00;99963.84;1632865;87;21130;-80
2021/04/01 10:11:57;;;;;;;22.98;14.20;;;;;;;17.04;50.86;99961.52;1629542;87;21193;-80
2021/04/01 10:14:24;;;;;;;30.27;15.58;;;;;;;17.10;50.91;99956.87;1633758;87;21152;-80
2021/04/01 10:17:01;;;;;;;27.13;14.87;;;;;;;17.15;50.11;99959.06;1639438;87;21462;-80
2021/04/01 10:19:31;;;;;;;23.22;14.20;;;;;;;17.15;49.41;99953.23;1631785;86;21452;-80
2021/04/01 10:21:58;;;;;;;28.02;14.63;;;;;;;17.15;49.43;99961.73;1636310;87;21182;-81
2021/04/01 10:24:30;;;;;;;29.35;16.37;;;;;;;17.14;48.66;99947.54;1626456;87;21581;-81
2021/04/01 10:29:57;;;;;;;31.48;15.08;;;;;;;17.12;48.90;99944.22;1637093;87;21196;-80
2021/04/01 10:32:09;;;;;;;31.45;15.80;;;;;;;17.13;48.37;99955.21;1630181;87;21186;-80
2021/04/01 10:34:53;;;;;;;30.15;15.43;;;;;;;17.11;48.22;99951.39;1635016;87;21178;-80
2021/04/01 10:37:22;;;;;;;29.37;16.90;;;;;;;17.11;48.28;99957.22;1636017;87;21200;-80
2021/04/01 10:39:51;;;;;;;33.73;18.40;;;;;;;17.12;48.25;99945.55;1631056;86;21161;-80
2021/04/01 10:42:32;;;;;;;34.78;16.20;;;;;;;17.13;48.38;99942.38;1636673;86;21358;-80
2021/04/01 10:45:12;;;;;;;28.25;16.62;;;;;;;17.16;48.78;99946.06;1613412;87;21105;-81
2021/04/01 10:47:53;;;;;;;25.65;14.80;;;;;;;17.19;48.39;99937.73;1636597;86;21561;-80
2021/04/01 10:50:20;;;;;;;27.27;17.25;;;;;;;17.24;48.47;99934.06;1651427;86;21131;-81
2021/04/01 10:52:47;;;;;;;29.60;17.90;;;;;;;17.30;47.84;99928.91;1633526;86;21214;-81
2021/04/01 10:55:13;;;;;;;25.82;15.72;;;;;;;17.37;48.29;99932.26;1635941;87;21134;-81
2021/04/01 10:57:40;;;;;;;29.60;16.27;;;;;;;17.42;48.24;99920.61;1632606;87;21316;-81
2021/04/01 11:00:14;;;;;;;27.42;14.65;;;;;;;17.48;48.17;99915.95;1636623;86;21183;-79
2021/04/01 11:02:45;;;;;;;28.38;15.48;;;;;;;17.55;47.57;99913.78;1639063;87;21132;-79
2021/04/01 11:05:16;;;;;;;25.10;14.45;;;;;;;17.60;47.80;99907.92;1632820;87;21148;-79
2021/04/01 11:07:47;;;;;;;34.15;16.90;;;;;;;17.65;47.56;99908.28;1633265;87;21671;-79
2021/04/01 11:10:28;;;;;;;29.20;15.47;;;;;;;17.72;47.79;99915.11;1638796;87;21648;-81
2021/04/01 11:12:59;;;;;;;34.45;15.60;;;;;;;17.75;46.92;99915.61;1639741;87;21201;-81
2021/04/01 11:15:29;;;;;;;26.40;16.20;;;;;;;17.77;46.40;99910.98;1631803;87;21184;-81
2021/04/01 11:18:17;;;;;;;29.95;15.40;;;;;;;17.78;47.25;99911.30;1638108;87;21188;-81
2021/04/01 11:20:45;;;;;;;26.52;15.83;;;;;;;17.83;46.34;99915.30;1633438;86;21581;-81
2021/04/01 11:23:17;;;;;;;27.35;14.30;;;;;;;17.87;46.25;99924.63;1635667;87;21135;-79
2021/04/01 11:25:50;;;;;;;24.03;13.90;;;;;;;17.91;46.70;99914.80;1640387;87;21581;-79
2021/04/01 11:28:17;;;;;;;25.60;14.53;;;;;;;17.94;45.85;99915.80;1639792;86;21105;-79
2021/04/01 11:30:51;;;;;;;26.97;14.53;;;;;;;17.98;45.57;99923.79;1639680;87;21135;-79
2021/04/01 11:33:22;;;;;;;25.05;13.80;;;;;;;18.02;45.57;99921.61;1634828;87;21230;-79
2021/04/01 11:35:59;;;;;;;23.70;14.70;;;;;;;18.06;46.20;99924.27;1632032;87;21181;-80
2021/04/01 11:38:23;;;;;;;26.87;15.50;;;;;;;18.10;45.74;99923.42;1638093;86;21288;-80
2021/04/01 11:41:01;;;;;;;26.10;14.00;;;;;;;18.13;46.12;99925.28;1647416;86;21155;-79
2021/04/01 11:43:31;;;;;;;23.65;14.30;;;;;;;18.18;45.55;99926.09;1637906;86;21565;-80
2021/04/01 11:45:59;;;;;;;25.80;15.10;;;;;;;18.23;45.53;99916.58;1630465;87;21232;-81
2021/04/01 11:48:25;;;;;;;24.87;14.83;;;;;;;18.30;45.11;99915.91;1637373;87;21176;-80
2021/04/01 11:50:52;;;;;;;21.60;13.90;;;;;;;18.36;44.37;99923.20;1630752;87;21294;-80
2021/04/01 11:53:18;;;;;;;26.45;15.08;;;;;;;18.42;45.19;99915.84;1636101;87;21167;-79
2021/04/01 11:55:49;;;;;;;25.48;13.43;;;;;;;18.49;45.33;99915.00;1639791;87;21647;-79
2021/04/01 11:58:16;;;;;;;26.48;15.18;;;;;;;18.57;45.35;99906.62;1637624;87;21155;-79
2021/04/01 12:00:43;;;;;;;23.87;14.95;;;;;;;18.65;44.73;99919.42;1637308;87;21513;-80
2021/04/01 12:03:19;;;;;;;26.17;14.28;;;;;;;18.76;43.95;99922.78;1638909;86;21280;-79
2021/04/01 12:05:48;;;;;;;25.20;14.05;;;;;;;18.85;44.74;99921.71;1631879;87;21807;-80
2021/04/01 12:08:13;;;;;;;28.12;16.00;;;;;;;18.97;44.39;99918.98;1604993;87;21210;-80
2021/04/01 12:10:40;;;;;;;24.12;14.58;;;;;;;19.11;44.08;99880.78;1634700;87;21240;-81
2021/04/01 12:13:07;;;;;;;23.20;14.98;;;;;;;19.11;44.08;99880.78;1634873;87;21708;-80
2021/04/01 12:15:39;;;;;;;25.17;15.38;;;;;;;19.36;43.61;99904.19;1639723;87;21156;-80
2021/04/01 12:18:08;;;;;;;27.17;16.37;;;;;;;19.47;43.99;99894.91;1637213;87;21182;-80
2021/04/01 12:20:36;;;;;;;27.75;16.55;;;;;;;19.70;44.78;99862.80;1630725;87;21176;-81
2021/04/01 12:23:21;;;;;;;28.50;17.45;;;;;;;19.70;44.78;99862.80;1634975;87;21182;-81
2021/04/01 12:25:48;;;;;;;25.95;18.23;;;;;;;20.05;43.26;99887.23;1630993;87;21183;-80
2021/04/01 12:28:21;;;;;;;34.13;17.07;;;;;;;20.17;41.75;99899.64;1636458;87;21160;-80
2021/04/01 12:30:50;;;;;;;42.75;16.12;;;;;;;20.24;41.36;99899.25;1633647;87;21204;-80
2021/04/01 12:33:23;;;;;;;27.13;18.10;;;;;;;20.29;42.35;99904.36;1630074;87;21187;-81
2021/04/01 12:36:00;;;;;;;27.70;18.52;;;;;;;20.32;41.75;99909.36;1631481;86;21291;-78
2021/04/01 12:38:36;;;;;;;29.75;16.77;;;;;;;20.25;41.10;99903.08;1634097;87;21159;-79
2021/04/01 12:41:09;;;;;;;31.65;18.60;;;;;;;20.13;41.19;99903.20;1629191;87;21172;-80
2021/04/01 12:43:40;;;;;;;30.95;18.07;;;;;;;19.98;40.97;99913.08;1618831;87;21214;-80
2021/04/01 12:46:07;;;;;;;32.38;17.35;;;;;;;19.79;41.35;99911.23;1640333;87;21163;-80
2021/04/01 12:48:48;;;;;;;31.10;17.00;;;;;;;19.61;41.45;99908.86;1641679;86;21153;-80
2021/04/01 12:51:17;;;;;;;25.40;15.98;;;;;;;19.30;41.51;99888.84;1639487;87;21169;-79
2021/04/01 12:53:43;;;;;;;28.65;18.82;;;;;;;19.28;42.28;99907.42;1585733;87;21649;-79
2021/04/01 12:56:14;;;;;;;31.73;20.48;;;;;;;19.13;41.92;99910.87;1634318;87;21166;-79
2021/04/01 12:58:46;;;;;;;29.45;18.30;;;;;;;19.03;41.44;99913.45;1624502;87;21170;-79
2021/04/01 13:01:44;;;;;;;33.92;19.05;;;;;;;18.86;41.80;99911.38;1632809;87;21133;-80